createdAt,value
2019-03-04T00:07:13.825Z,10938
2019-03-04T00:17:13.034Z,10938.1
2019-03-04T00:27:12.253Z,10938.2
2019-03-04T00:40:14.503Z,10938
2019-03-04T00:50:13.726Z,10938
2019-03-04T01:00:12.933Z,10938.1
2019-03-04T01:10:12.130Z,10938.2
2019-03-04T01:20:11.339Z,10938.2
2019-03-04T01:30:10.604Z,10938.3
2019-03-04T01:40:09.807Z,10938.4
2019-03-04T01:50:09.089Z,10938.5
2019-03-04T02:00:08.377Z,10938.7
2019-03-04T02:10:07.675Z,10938.7
2019-03-04T02:20:06.961Z,10938.8
2019-03-04T02:30:06.266Z,10938.8
2019-03-04T02:40:05.464Z,10938.9
2019-03-04T02:50:04.675Z,10939
2019-03-04T03:00:03.887Z,10939.1
2019-03-04T03:10:03.114Z,10939.2
2019-03-04T03:18:06.622Z,10938.9
2019-03-04T03:28:05.832Z,10939
2019-03-04T03:38:05.046Z,10939.1
2019-03-04T03:48:04.260Z,10939.2
2019-03-04T03:58:03.473Z,10939.3
2019-03-04T04:08:02.680Z,10939.3
2019-03-04T04:18:01.932Z,10939.4
2019-03-04T04:28:01.210Z,10939.5
2019-03-04T04:38:00.496Z,10939.6
2019-03-04T04:47:59.793Z,10939.8
2019-03-04T04:57:59.082Z,10939.9
2019-03-04T05:07:58.374Z,10940
2019-03-04T05:17:57.581Z,10940
2019-03-04T05:27:56.793Z,10940.1
2019-03-04T05:37:55.996Z,10940.2
2019-03-04T05:47:55.203Z,10940.3
2019-03-04T05:57:54.412Z,10940.4
2019-03-04T06:07:53.617Z,10940.5
2019-03-04T06:17:52.824Z,10940.6
2019-03-04T06:27:52.031Z,10940.7
2019-03-04T06:37:51.238Z,10940.7
2019-03-04T06:47:50.462Z,10940.8
2019-03-04T06:57:49.659Z,10940.8
2019-03-04T07:07:48.864Z,10940.9
2019-03-04T07:17:48.073Z,10940.9
2019-03-04T07:27:47.294Z,10941
2019-03-04T07:37:46.491Z,10941.1
2019-03-04T07:47:45.700Z,10941.1
2019-03-04T07:57:44.909Z,10941.2
2019-03-04T08:07:44.120Z,10941.2
2019-03-04T08:17:43.336Z,10941.3
2019-03-04T08:27:42.542Z,10941.3
2019-03-04T08:41:54.521Z,10941.3
2019-03-04T08:51:53.736Z,10941.3
2019-03-04T09:01:52.941Z,10941.3
2019-03-04T09:11:52.150Z,10941.4
2019-03-04T09:21:51.365Z,10941.4
2019-03-04T09:31:50.572Z,10941.5
2019-03-04T09:41:49.826Z,10941.5
2019-03-04T09:51:49.132Z,10941.6
2019-03-04T10:01:48.413Z,10941.6
2019-03-04T10:11:49.155Z,10941.7
2019-03-04T10:21:49.990Z,10941.7
2019-03-04T10:31:47.571Z,10941.7
2019-03-04T10:41:46.836Z,10941.8
2019-03-04T10:51:46.039Z,10941.8
2019-03-04T11:01:45.246Z,10941.8
2019-03-04T11:11:44.406Z,10941.9
2019-03-04T11:21:43.616Z,10941.9
2019-03-04T11:31:42.827Z,10942
2019-03-04T11:41:42.037Z,10942
2019-03-04T11:51:41.250Z,10942
2019-03-04T12:01:40.458Z,10942.1
2019-03-04T12:11:39.668Z,10942.1
2019-03-04T12:21:38.877Z,10942.2
2019-03-04T12:31:38.088Z,10942.2
2019-03-04T12:41:37.301Z,10942.3
2019-03-04T12:51:36.507Z,10942.3
2019-03-04T13:01:35.729Z,10942.3
2019-03-04T13:11:34.927Z,10942.4
2019-03-04T13:21:34.136Z,10942.4
2019-03-04T13:31:33.356Z,10942.5
2019-03-04T13:41:32.558Z,10942.5
2019-03-04T13:51:31.770Z,10942.5
2019-03-04T14:01:30.980Z,10942.6
2019-03-04T14:11:30.193Z,10942.6
2019-03-04T14:21:29.400Z,10942.7
2019-03-04T14:31:28.611Z,10942.7
2019-03-04T14:41:27.822Z,10942.8
2019-03-04T14:51:27.044Z,10942.8
2019-03-04T15:01:26.245Z,10942.8
2019-03-04T15:11:25.508Z,10942.9
2019-03-04T15:21:24.667Z,10942.9
2019-03-04T15:31:23.881Z,10942.9
2019-03-04T15:41:23.098Z,10943
2019-03-04T15:51:22.302Z,10943
2019-03-04T16:01:21.514Z,10943.1
2019-03-04T16:11:20.731Z,10943.1
2019-03-04T16:21:19.945Z,10943.2
2019-03-04T16:31:19.163Z,10943.3
2019-03-04T16:41:18.380Z,10943.3
2019-03-04T16:51:17.598Z,10943.3
2019-03-04T17:01:16.817Z,10943.4
2019-03-04T17:11:16.033Z,10943.4
2019-03-04T17:21:15.248Z,10943.5
2019-03-04T17:31:14.459Z,10943.5
2019-03-04T17:41:13.672Z,10943.6
2019-03-04T17:51:12.889Z,10943.6
2019-03-04T18:01:12.097Z,10943.7
2019-03-04T18:11:11.313Z,10943.7
2019-03-04T18:21:10.531Z,10943.8
2019-03-04T18:31:09.737Z,10943.8
2019-03-04T18:41:08.958Z,10943.8
2019-03-04T18:51:08.165Z,10943.9
2019-03-04T19:01:07.376Z,10943.9
2019-03-04T19:11:06.588Z,10944
2019-03-04T19:21:05.810Z,10944
2019-03-04T19:31:05.014Z,10944.1
2019-03-04T19:41:04.226Z,10944.1
2019-03-04T19:51:03.439Z,10944.2
2019-03-04T20:01:02.652Z,10944.3
2019-03-04T20:11:01.869Z,10944.3
2019-03-04T20:21:01.081Z,10944.4
2019-03-04T20:31:00.295Z,10944.4
2019-03-04T20:40:59.506Z,10944.5
2019-03-04T20:50:58.767Z,10944.5
2019-03-04T21:00:57.929Z,10944.6
2019-03-04T21:12:05.868Z,10944.5
2019-03-04T21:22:05.080Z,10944.6
2019-03-04T21:32:04.295Z,10944.6
2019-03-04T21:42:03.504Z,10944.7
2019-03-04T21:52:02.721Z,10944.7
2019-03-04T22:02:01.942Z,10944.8
2019-03-04T22:12:01.189Z,10944.8
2019-03-04T22:22:00.471Z,10944.9
2019-03-04T22:31:59.769Z,10945
2019-03-04T22:41:59.052Z,10945.1
2019-03-04T22:51:58.338Z,10945.1
2019-03-04T23:01:57.632Z,10945.2
2019-03-04T23:11:56.841Z,10945.3
2019-03-04T23:21:56.051Z,10945.3
2019-03-04T23:31:55.261Z,10945.4
2019-03-04T23:41:54.471Z,10945.5
2019-03-04T23:57:00.657Z,10945.3
